sensor_id;sensor_type;location;lat;lon;timestamp;P1;durP1;ratioP1;P2;durP2;ratioP2
74215;SDS011;62577;53.378;-2.914;2022-12-18T00:01:13;21.48;;;8.75;;
74215;SDS011;62577;53.378;-2.914;2022-12-18T00:03:39;9.60;;;7.20;;
74215;SDS011;62577;53.378;-2.914;2022-12-18T00:06:05;10.88;;;5.70;;
74215;SDS011;62577;53.378;-2.914;2022-12-18T00:08:31;16.20;;;8.43;;
74215;SDS011;62577;53.378;-2.914;2022-12-18T00:11:03;11.23;;;6.53;;
74215;SDS011;62577;53.378;-2.914;2022-12-18T00:13:29;12.95;;;7.72;;
74215;SDS011;62577;53.378;-2.914;2022-12-18T00:15:55;16.25;;;7.80;;
74215;SDS011;62577;53.378;-2.914;2022-12-18T00:18:26;10.13;;;6.55;;
74215;SDS011;62577;53.378;-2.914;2022-12-18T00:20:52;10.90;;;6.53;;
74215;SDS011;62577;53.378;-2.914;2022-12-18T00:23:18;9.55;;;6.50;;
74215;SDS011;62577;53.378;-2.914;2022-12-18T00:25:44;13.73;;;7.35;;
74215;SDS011;62577;53.378;-2.914;2022-12-18T00:28:10;12.20;;;7.43;;
74215;SDS011;62577;53.378;-2.914;2022-12-18T00:30:36;11.18;;;5.78;;
74215;SDS011;62577;53.378;-2.914;2022-12-18T00:33:02;11.25;;;7.35;;
74215;SDS011;62577;53.378;-2.914;2022-12-18T00:35:28;13.48;;;7.43;;
74215;SDS011;62577;53.378;-2.914;2022-12-18T00:37:54;10.18;;;5.82;;
74215;SDS011;62577;53.378;-2.914;2022-12-18T00:40:20;10.80;;;7.32;;
74215;SDS011;62577;53.378;-2.914;2022-12-18T00:42:46;11.70;;;6.45;;
74215;SDS011;62577;53.378;-2.914;2022-12-18T00:47:48;11.20;;;6.13;;
74215;SDS011;62577;53.378;-2.914;2022-12-18T00:50:14;13.55;;;6.90;;
74215;SDS011;62577;53.378;-2.914;2022-12-18T00:52:40;12.35;;;7.00;;
74215;SDS011;62577;53.378;-2.914;2022-12-18T00:55:07;10.15;;;5.82;;
74215;SDS011;62577;53.378;-2.914;2022-12-18T00:57:34;9.57;;;6.65;;
74215;SDS011;62577;53.378;-2.914;2022-12-18T01:00:00;12.95;;;7.10;;
74215;SDS011;62577;53.378;-2.914;2022-12-18T01:02:26;11.15;;;6.05;;
74215;SDS011;62577;53.378;-2.914;2022-12-18T01:04:52;11.30;;;7.05;;
74215;SDS011;62577;53.378;-2.914;2022-12-18T01:07:18;12.70;;;7.28;;
74215;SDS011;62577;53.378;-2.914;2022-12-18T01:09:44;12.32;;;7.07;;
74215;SDS011;62577;53.378;-2.914;2022-12-18T01:12:10;13.45;;;7.93;;
74215;SDS011;62577;53.378;-2.914;2022-12-18T01:14:36;12.63;;;6.93;;
74215;SDS011;62577;53.378;-2.914;2022-12-18T01:17:03;13.52;;;7.25;;
74215;SDS011;62577;53.378;-2.914;2022-12-18T01:19:29;9.07;;;5.80;;
74215;SDS011;62577;53.378;-2.914;2022-12-18T01:21:55;11.57;;;6.72;;
74215;SDS011;62577;53.378;-2.914;2022-12-18T01:24:21;11.70;;;7.47;;
74215;SDS011;62577;53.378;-2.914;2022-12-18T01:26:47;8.35;;;5.63;;
74215;SDS011;62577;53.378;-2.914;2022-12-18T01:29:13;15.55;;;6.32;;
74215;SDS011;62577;53.378;-2.914;2022-12-18T01:31:39;11.23;;;6.43;;
74215;SDS011;62577;53.378;-2.914;2022-12-18T01:34:05;9.32;;;5.13;;
74215;SDS011;62577;53.378;-2.914;2022-12-18T01:36:32;10.77;;;5.88;;
74215;SDS011;62577;53.378;-2.914;2022-12-18T01:38:59;9.80;;;5.65;;
74215;SDS011;62577;53.378;-2.914;2022-12-18T01:41:26;9.70;;;5.63;;
74215;SDS011;62577;53.378;-2.914;2022-12-18T01:46:57;9.18;;;5.70;;
74215;SDS011;62577;53.378;-2.914;2022-12-18T01:49:23;10.20;;;6.05;;
74215;SDS011;62577;53.378;-2.914;2022-12-18T01:51:49;7.53;;;4.68;;
74215;SDS011;62577;53.378;-2.914;2022-12-18T01:54:16;7.93;;;5.45;;
74215;SDS011;62577;53.378;-2.914;2022-12-18T01:56:42;9.25;;;5.75;;
74215;SDS011;62577;53.378;-2.914;2022-12-18T01:59:08;9.15;;;4.57;;
74215;SDS011;62577;53.378;-2.914;2022-12-18T02:01:35;7.32;;;4.32;;
74215;SDS011;62577;53.378;-2.914;2022-12-18T02:04:18;6.85;;;4.50;;
74215;SDS011;62577;53.378;-2.914;2022-12-18T02:06:45;11.13;;;6.10;;
74215;SDS011;62577;53.378;-2.914;2022-12-18T02:09:18;9.57;;;5.00;;
74215;SDS011;62577;53.378;-2.914;2022-12-18T02:24:32;9.48;;;5.57;;
74215;SDS011;62577;53.378;-2.914;2022-12-18T02:27:07;8.25;;;4.63;;
74215;SDS011;62577;53.378;-2.914;2022-12-18T02:29:41;8.02;;;5.10;;
74215;SDS011;62577;53.378;-2.914;2022-12-18T02:32:11;12.90;;;5.88;;
74215;SDS011;62577;53.378;-2.914;2022-12-18T02:34:40;7.93;;;5.10;;
74215;SDS011;62577;53.378;-2.914;2022-12-18T02:37:07;8.20;;;5.32;;
74215;SDS011;62577;53.378;-2.914;2022-12-18T02:39:35;10.73;;;5.45;;
74215;SDS011;62577;53.378;-2.914;2022-12-18T02:42:02;9.10;;;5.05;;
74215;SDS011;62577;53.378;-2.914;2022-12-18T02:44:32;9.57;;;5.75;;
74215;SDS011;62577;53.378;-2.914;2022-12-18T02:46:58;10.88;;;6.38;;
74215;SDS011;62577;53.378;-2.914;2022-12-18T02:57:13;11.35;;;5.38;;
74215;SDS011;62577;53.378;-2.914;2022-12-18T02:59:41;9.65;;;5.35;;
74215;SDS011;62577;53.378;-2.914;2022-12-18T03:02:22;9.80;;;4.40;;
74215;SDS011;62577;53.378;-2.914;2022-12-18T03:04:50;9.43;;;4.72;;
74215;SDS011;62577;53.378;-2.914;2022-12-18T03:07:23;7.05;;;4.38;;
74215;SDS011;62577;53.378;-2.914;2022-12-18T03:09:51;6.10;;;4.03;;
74215;SDS011;62577;53.378;-2.914;2022-12-18T03:12:20;7.25;;;4.63;;
74215;SDS011;62577;53.378;-2.914;2022-12-18T03:14:48;6.32;;;3.28;;
74215;SDS011;62577;53.378;-2.914;2022-12-18T03:17:16;6.72;;;3.58;;
74215;SDS011;62577;53.378;-2.914;2022-12-18T03:19:43;9.18;;;5.40;;
74215;SDS011;62577;53.378;-2.914;2022-12-18T03:22:09;6.07;;;3.95;;
74215;SDS011;62577;53.378;-2.914;2022-12-18T03:24:35;9.25;;;4.78;;
74215;SDS011;62577;53.378;-2.914;2022-12-18T03:27:05;7.72;;;5.05;;
74215;SDS011;62577;53.378;-2.914;2022-12-18T03:29:36;9.57;;;4.78;;
74215;SDS011;62577;53.378;-2.914;2022-12-18T03:32:10;8.45;;;4.00;;
74215;SDS011;62577;53.378;-2.914;2022-12-18T03:34:37;12.15;;;5.50;;
74215;SDS011;62577;53.378;-2.914;2022-12-18T03:37:04;8.43;;;4.80;;
74215;SDS011;62577;53.378;-2.914;2022-12-18T03:39:31;7.20;;;2.95;;
74215;SDS011;62577;53.378;-2.914;2022-12-18T03:42:00;8.00;;;4.32;;
74215;SDS011;62577;53.378;-2.914;2022-12-18T03:44:30;11.25;;;5.25;;
74215;SDS011;62577;53.378;-2.914;2022-12-18T03:47:07;11.63;;;5.10;;
74215;SDS011;62577;53.378;-2.914;2022-12-18T03:49:38;5.85;;;3.88;;
74215;SDS011;62577;53.378;-2.914;2022-12-18T03:52:06;8.98;;;5.43;;
74215;SDS011;62577;53.378;-2.914;2022-12-18T03:54:34;6.72;;;4.75;;
74215;SDS011;62577;53.378;-2.914;2022-12-18T03:57:03;9.55;;;5.00;;
74215;SDS011;62577;53.378;-2.914;2022-12-18T03:59:31;9.75;;;5.05;;
74215;SDS011;62577;53.378;-2.914;2022-12-18T04:01:57;11.20;;;5.30;;
74215;SDS011;62577;53.378;-2.914;2022-12-18T04:04:24;8.63;;;4.72;;
74215;SDS011;62577;53.378;-2.914;2022-12-18T04:06:51;8.23;;;4.53;;
74215;SDS011;62577;53.378;-2.914;2022-12-18T04:09:18;10.52;;;4.55;;
74215;SDS011;62577;53.378;-2.914;2022-12-18T04:11:44;9.70;;;5.97;;
74215;SDS011;62577;53.378;-2.914;2022-12-18T04:14:11;11.75;;;5.13;;
74215;SDS011;62577;53.378;-2.914;2022-12-18T04:16:37;9.25;;;6.45;;
74215;SDS011;62577;53.378;-2.914;2022-12-18T04:19:03;6.38;;;4.10;;
74215;SDS011;62577;53.378;-2.914;2022-12-18T04:21:30;9.10;;;5.47;;
74215;SDS011;62577;53.378;-2.914;2022-12-18T04:23:56;10.75;;;6.88;;
74215;SDS011;62577;53.378;-2.914;2022-12-18T04:26:22;12.30;;;6.45;;
74215;SDS011;62577;53.378;-2.914;2022-12-18T04:28:48;9.95;;;5.75;;
74215;SDS011;62577;53.378;-2.914;2022-12-18T04:31:14;10.82;;;6.20;;
74215;SDS011;62577;53.378;-2.914;2022-12-18T04:33:40;12.23;;;6.65;;
74215;SDS011;62577;53.378;-2.914;2022-12-18T04:36:06;10.77;;;6.82;;
74215;SDS011;62577;53.378;-2.914;2022-12-18T04:38:32;7.45;;;4.55;;
74215;SDS011;62577;53.378;-2.914;2022-12-18T04:40:58;13.38;;;7.70;;
74215;SDS011;62577;53.378;-2.914;2022-12-18T04:43:24;11.55;;;7.32;;
74215;SDS011;62577;53.378;-2.914;2022-12-18T04:45:50;10.77;;;5.20;;
74215;SDS011;62577;53.378;-2.914;2022-12-18T04:48:16;10.07;;;6.65;;
74215;SDS011;62577;53.378;-2.914;2022-12-18T04:50:42;8.88;;;5.22;;
74215;SDS011;62577;53.378;-2.914;2022-12-18T04:53:08;9.95;;;6.40;;
74215;SDS011;62577;53.378;-2.914;2022-12-18T04:55:34;10.18;;;5.10;;
74215;SDS011;62577;53.378;-2.914;2022-12-18T04:58:00;14.32;;;6.78;;
74215;SDS011;62577;53.378;-2.914;2022-12-18T05:00:26;11.90;;;6.95;;
74215;SDS011;62577;53.378;-2.914;2022-12-18T05:02:52;12.52;;;6.65;;
74215;SDS011;62577;53.378;-2.914;2022-12-18T05:05:18;13.18;;;6.00;;
74215;SDS011;62577;53.378;-2.914;2022-12-18T05:07:44;10.82;;;6.75;;
74215;SDS011;62577;53.378;-2.914;2022-12-18T05:10:10;8.25;;;5.68;;
74215;SDS011;62577;53.378;-2.914;2022-12-18T05:12:36;8.15;;;5.43;;
74215;SDS011;62577;53.378;-2.914;2022-12-18T05:15:23;13.73;;;8.52;;
74215;SDS011;62577;53.378;-2.914;2022-12-18T05:17:49;12.35;;;7.68;;
74215;SDS011;62577;53.378;-2.914;2022-12-18T05:20:15;8.65;;;4.63;;
74215;SDS011;62577;53.378;-2.914;2022-12-18T05:22:41;12.77;;;6.78;;
74215;SDS011;62577;53.378;-2.914;2022-12-18T05:25:07;12.38;;;6.80;;
74215;SDS011;62577;53.378;-2.914;2022-12-18T05:27:33;12.65;;;6.65;;
74215;SDS011;62577;53.378;-2.914;2022-12-18T05:29:59;9.95;;;5.85;;
74215;SDS011;62577;53.378;-2.914;2022-12-18T05:32:25;15.52;;;9.38;;
74215;SDS011;62577;53.378;-2.914;2022-12-18T05:34:51;16.83;;;9.07;;
74215;SDS011;62577;53.378;-2.914;2022-12-18T05:37:17;12.77;;;6.80;;
74215;SDS011;62577;53.378;-2.914;2022-12-18T05:39:43;16.92;;;9.50;;
74215;SDS011;62577;53.378;-2.914;2022-12-18T05:42:09;13.25;;;9.43;;
74215;SDS011;62577;53.378;-2.914;2022-12-18T05:44:35;19.95;;;10.95;;
74215;SDS011;62577;53.378;-2.914;2022-12-18T05:47:01;15.63;;;10.43;;
74215;SDS011;62577;53.378;-2.914;2022-12-18T05:49:27;12.63;;;7.65;;
74215;SDS011;62577;53.378;-2.914;2022-12-18T05:51:53;17.60;;;9.82;;
74215;SDS011;62577;53.378;-2.914;2022-12-18T05:54:19;19.17;;;9.18;;
74215;SDS011;62577;53.378;-2.914;2022-12-18T05:56:46;14.40;;;8.95;;
74215;SDS011;62577;53.378;-2.914;2022-12-18T05:59:12;18.40;;;10.50;;
74215;SDS011;62577;53.378;-2.914;2022-12-18T06:01:38;16.92;;;10.27;;
74215;SDS011;62577;53.378;-2.914;2022-12-18T06:04:04;15.00;;;8.52;;
74215;SDS011;62577;53.378;-2.914;2022-12-18T06:06:30;15.00;;;8.60;;
74215;SDS011;62577;53.378;-2.914;2022-12-18T06:08:56;15.40;;;9.13;;
74215;SDS011;62577;53.378;-2.914;2022-12-18T06:11:23;18.85;;;10.70;;
74215;SDS011;62577;53.378;-2.914;2022-12-18T06:13:50;17.38;;;9.85;;
74215;SDS011;62577;53.378;-2.914;2022-12-18T06:16:16;16.42;;;9.68;;
74215;SDS011;62577;53.378;-2.914;2022-12-18T06:18:42;16.30;;;8.68;;
74215;SDS011;62577;53.378;-2.914;2022-12-18T06:21:08;15.35;;;9.82;;
74215;SDS011;62577;53.378;-2.914;2022-12-18T06:23:35;18.00;;;8.18;;
74215;SDS011;62577;53.378;-2.914;2022-12-18T06:26:07;12.57;;;6.30;;
74215;SDS011;62577;53.378;-2.914;2022-12-18T06:28:34;11.75;;;5.75;;
74215;SDS011;62577;53.378;-2.914;2022-12-18T06:31:00;15.70;;;9.02;;
74215;SDS011;62577;53.378;-2.914;2022-12-18T06:33:26;16.67;;;8.43;;
74215;SDS011;62577;53.378;-2.914;2022-12-18T06:35:53;19.33;;;9.73;;
74215;SDS011;62577;53.378;-2.914;2022-12-18T06:38:19;21.35;;;13.43;;
74215;SDS011;62577;53.378;-2.914;2022-12-18T06:40:45;19.10;;;10.00;;
74215;SDS011;62577;53.378;-2.914;2022-12-18T06:43:11;19.75;;;12.40;;
74215;SDS011;62577;53.378;-2.914;2022-12-18T06:45:37;19.63;;;11.38;;
74215;SDS011;62577;53.378;-2.914;2022-12-18T06:48:03;20.00;;;12.25;;
74215;SDS011;62577;53.378;-2.914;2022-12-18T06:50:29;20.55;;;11.43;;
74215;SDS011;62577;53.378;-2.914;2022-12-18T06:52:55;21.60;;;11.80;;
74215;SDS011;62577;53.378;-2.914;2022-12-18T06:55:21;22.95;;;12.95;;
74215;SDS011;62577;53.378;-2.914;2022-12-18T06:57:47;22.88;;;13.85;;
74215;SDS011;62577;53.378;-2.914;2022-12-18T07:00:14;24.55;;;13.55;;
74215;SDS011;62577;53.378;-2.914;2022-12-18T07:02:40;27.15;;;15.95;;
74215;SDS011;62577;53.378;-2.914;2022-12-18T07:05:06;15.45;;;8.93;;
74215;SDS011;62577;53.378;-2.914;2022-12-18T07:07:33;23.67;;;10.30;;
74215;SDS011;62577;53.378;-2.914;2022-12-18T07:09:59;21.95;;;12.07;;
74215;SDS011;62577;53.378;-2.914;2022-12-18T07:12:26;27.35;;;15.05;;
74215;SDS011;62577;53.378;-2.914;2022-12-18T07:14:52;27.77;;;15.25;;
74215;SDS011;62577;53.378;-2.914;2022-12-18T07:17:18;25.10;;;12.85;;
74215;SDS011;62577;53.378;-2.914;2022-12-18T07:19:44;26.83;;;13.77;;
74215;SDS011;62577;53.378;-2.914;2022-12-18T07:22:10;26.80;;;13.32;;
74215;SDS011;62577;53.378;-2.914;2022-12-18T07:24:36;28.38;;;13.55;;
74215;SDS011;62577;53.378;-2.914;2022-12-18T07:27:02;31.45;;;17.70;;
74215;SDS011;62577;53.378;-2.914;2022-12-18T07:29:29;25.85;;;12.15;;
74215;SDS011;62577;53.378;-2.914;2022-12-18T07:31:55;33.15;;;17.35;;
74215;SDS011;62577;53.378;-2.914;2022-12-18T07:34:21;33.78;;;18.27;;
74215;SDS011;62577;53.378;-2.914;2022-12-18T07:36:47;28.02;;;14.35;;
74215;SDS011;62577;53.378;-2.914;2022-12-18T07:39:13;30.65;;;16.65;;
74215;SDS011;62577;53.378;-2.914;2022-12-18T07:41:39;33.45;;;16.10;;
74215;SDS011;62577;53.378;-2.914;2022-12-18T07:44:11;25.10;;;14.40;;
74215;SDS011;62577;53.378;-2.914;2022-12-18T07:46:37;25.23;;;13.75;;
74215;SDS011;62577;53.378;-2.914;2022-12-18T07:49:03;31.17;;;16.08;;
74215;SDS011;62577;53.378;-2.914;2022-12-18T07:51:29;26.80;;;13.98;;
74215;SDS011;62577;53.378;-2.914;2022-12-18T07:53:56;24.08;;;13.25;;
74215;SDS011;62577;53.378;-2.914;2022-12-18T07:56:22;31.17;;;15.10;;
74215;SDS011;62577;53.378;-2.914;2022-12-18T07:58:48;25.75;;;13.52;;
74215;SDS011;62577;53.378;-2.914;2022-12-18T08:01:14;35.38;;;17.00;;
74215;SDS011;62577;53.378;-2.914;2022-12-18T08:03:40;31.88;;;16.15;;
74215;SDS011;62577;53.378;-2.914;2022-12-18T08:06:07;26.88;;;14.63;;
74215;SDS011;62577;53.378;-2.914;2022-12-18T08:08:34;27.38;;;14.10;;
74215;SDS011;62577;53.378;-2.914;2022-12-18T08:11:01;33.42;;;17.60;;
74215;SDS011;62577;53.378;-2.914;2022-12-18T08:13:27;31.90;;;17.38;;
74215;SDS011;62577;53.378;-2.914;2022-12-18T08:15:57;31.35;;;17.17;;
74215;SDS011;62577;53.378;-2.914;2022-12-18T08:18:23;26.80;;;14.27;;
74215;SDS011;62577;53.378;-2.914;2022-12-18T08:20:49;31.10;;;19.52;;
74215;SDS011;62577;53.378;-2.914;2022-12-18T08:23:15;34.13;;;16.92;;
74215;SDS011;62577;53.378;-2.914;2022-12-18T08:25:41;39.50;;;19.38;;
74215;SDS011;62577;53.378;-2.914;2022-12-18T08:28:07;33.50;;;16.15;;
74215;SDS011;62577;53.378;-2.914;2022-12-18T08:30:33;29.65;;;17.02;;
74215;SDS011;62577;53.378;-2.914;2022-12-18T08:32:59;34.70;;;18.05;;
74215;SDS011;62577;53.378;-2.914;2022-12-18T08:35:25;35.72;;;17.98;;
74215;SDS011;62577;53.378;-2.914;2022-12-18T08:37:52;28.42;;;15.98;;
74215;SDS011;62577;53.378;-2.914;2022-12-18T08:40:18;37.13;;;23.45;;
74215;SDS011;62577;53.378;-2.914;2022-12-18T08:42:44;33.78;;;18.60;;
74215;SDS011;62577;53.378;-2.914;2022-12-18T08:45:28;33.15;;;14.70;;
74215;SDS011;62577;53.378;-2.914;2022-12-18T08:47:55;34.35;;;19.60;;
74215;SDS011;62577;53.378;-2.914;2022-12-18T08:50:21;34.17;;;18.90;;
74215;SDS011;62577;53.378;-2.914;2022-12-18T08:52:47;30.23;;;17.00;;
74215;SDS011;62577;53.378;-2.914;2022-12-18T08:55:13;33.20;;;15.55;;
74215;SDS011;62577;53.378;-2.914;2022-12-18T08:57:39;32.63;;;15.85;;
74215;SDS011;62577;53.378;-2.914;2022-12-18T09:00:05;32.90;;;18.17;;
74215;SDS011;62577;53.378;-2.914;2022-12-18T09:02:31;30.80;;;17.70;;
74215;SDS011;62577;53.378;-2.914;2022-12-18T09:04:57;32.58;;;20.00;;
74215;SDS011;62577;53.378;-2.914;2022-12-18T09:07:23;24.02;;;13.07;;
74215;SDS011;62577;53.378;-2.914;2022-12-18T09:09:49;30.33;;;15.50;;
74215;SDS011;62577;53.378;-2.914;2022-12-18T09:12:15;30.58;;;14.35;;
74215;SDS011;62577;53.378;-2.914;2022-12-18T09:14:41;24.08;;;13.35;;
74215;SDS011;62577;53.378;-2.914;2022-12-18T09:17:07;30.13;;;17.83;;
74215;SDS011;62577;53.378;-2.914;2022-12-18T09:19:34;24.35;;;12.48;;
74215;SDS011;62577;53.378;-2.914;2022-12-18T09:22:00;28.30;;;14.55;;
74215;SDS011;62577;53.378;-2.914;2022-12-18T09:24:26;32.05;;;15.63;;
74215;SDS011;62577;53.378;-2.914;2022-12-18T09:26:53;26.55;;;13.35;;
74215;SDS011;62577;53.378;-2.914;2022-12-18T09:29:20;25.80;;;12.75;;
74215;SDS011;62577;53.378;-2.914;2022-12-18T09:31:46;27.08;;;13.68;;
74215;SDS011;62577;53.378;-2.914;2022-12-18T09:34:12;34.67;;;17.88;;
74215;SDS011;62577;53.378;-2.914;2022-12-18T09:36:38;32.83;;;20.05;;
74215;SDS011;62577;53.378;-2.914;2022-12-18T09:39:04;35.35;;;19.13;;
74215;SDS011;62577;53.378;-2.914;2022-12-18T09:44:03;27.98;;;16.77;;
74215;SDS011;62577;53.378;-2.914;2022-12-18T09:46:33;29.73;;;13.80;;
74215;SDS011;62577;53.378;-2.914;2022-12-18T09:49:00;33.13;;;18.40;;
74215;SDS011;62577;53.378;-2.914;2022-12-18T09:51:39;34.80;;;19.00;;
74215;SDS011;62577;53.378;-2.914;2022-12-18T09:54:28;33.95;;;18.63;;
74215;SDS011;62577;53.378;-2.914;2022-12-18T09:56:52;31.67;;;17.77;;
74215;SDS011;62577;53.378;-2.914;2022-12-18T09:59:23;36.85;;;20.23;;
74215;SDS011;62577;53.378;-2.914;2022-12-18T10:01:50;40.88;;;20.35;;
74215;SDS011;62577;53.378;-2.914;2022-12-18T10:04:16;34.95;;;18.77;;
74215;SDS011;62577;53.378;-2.914;2022-12-18T10:21:51;33.10;;;15.48;;
74215;SDS011;62577;53.378;-2.914;2022-12-18T10:24:43;27.00;;;12.18;;
74215;SDS011;62577;53.378;-2.914;2022-12-18T10:27:12;26.35;;;12.48;;
74215;SDS011;62577;53.378;-2.914;2022-12-18T10:29:39;30.35;;;17.50;;
74215;SDS011;62577;53.378;-2.914;2022-12-18T10:32:06;31.35;;;15.90;;
74215;SDS011;62577;53.378;-2.914;2022-12-18T10:34:33;23.48;;;13.27;;
74215;SDS011;62577;53.378;-2.914;2022-12-18T10:36:59;26.38;;;13.25;;
74215;SDS011;62577;53.378;-2.914;2022-12-18T10:39:26;25.23;;;12.38;;
74215;SDS011;62577;53.378;-2.914;2022-12-18T10:41:56;26.95;;;12.77;;
74215;SDS011;62577;53.378;-2.914;2022-12-18T10:44:34;24.95;;;13.93;;
74215;SDS011;62577;53.378;-2.914;2022-12-18T10:47:04;28.58;;;16.33;;
74215;SDS011;62577;53.378;-2.914;2022-12-18T10:49:31;23.15;;;12.05;;
74215;SDS011;62577;53.378;-2.914;2022-12-18T10:52:07;29.90;;;16.30;;
74215;SDS011;62577;53.378;-2.914;2022-12-18T10:54:34;26.35;;;13.65;;
74215;SDS011;62577;53.378;-2.914;2022-12-18T10:59:52;28.83;;;15.85;;
74215;SDS011;62577;53.378;-2.914;2022-12-18T11:02:24;25.58;;;14.73;;
74215;SDS011;62577;53.378;-2.914;2022-12-18T11:04:52;30.00;;;18.63;;
74215;SDS011;62577;53.378;-2.914;2022-12-18T11:07:18;25.08;;;13.40;;
74215;SDS011;62577;53.378;-2.914;2022-12-18T11:09:45;24.77;;;14.15;;
74215;SDS011;62577;53.378;-2.914;2022-12-18T11:12:28;25.65;;;14.73;;
74215;SDS011;62577;53.378;-2.914;2022-12-18T11:14:55;23.98;;;15.20;;
74215;SDS011;62577;53.378;-2.914;2022-12-18T11:17:25;25.65;;;14.35;;
74215;SDS011;62577;53.378;-2.914;2022-12-18T11:19:55;23.92;;;12.25;;
74215;SDS011;62577;53.378;-2.914;2022-12-18T11:22:25;21.45;;;12.55;;
74215;SDS011;62577;53.378;-2.914;2022-12-18T11:25:03;22.30;;;12.88;;
74215;SDS011;62577;53.378;-2.914;2022-12-18T11:27:30;24.63;;;11.48;;
74215;SDS011;62577;53.378;-2.914;2022-12-18T11:33:11;24.92;;;10.88;;
74215;SDS011;62577;53.378;-2.914;2022-12-18T11:35:53;22.00;;;10.68;;
74215;SDS011;62577;53.378;-2.914;2022-12-18T11:38:22;25.10;;;11.93;;
74215;SDS011;62577;53.378;-2.914;2022-12-18T11:40:53;19.80;;;11.20;;
74215;SDS011;62577;53.378;-2.914;2022-12-18T11:46:07;23.40;;;13.15;;
74215;SDS011;62577;53.378;-2.914;2022-12-18T11:48:38;20.25;;;10.15;;
74215;SDS011;62577;53.378;-2.914;2022-12-18T11:51:09;24.50;;;12.70;;
74215;SDS011;62577;53.378;-2.914;2022-12-18T11:53:36;22.55;;;9.93;;
74215;SDS011;62577;53.378;-2.914;2022-12-18T12:09:01;19.92;;;10.73;;
74215;SDS011;62577;53.378;-2.914;2022-12-18T12:11:38;16.83;;;9.68;;
74215;SDS011;62577;53.378;-2.914;2022-12-18T12:16:37;17.05;;;9.02;;
74215;SDS011;62577;53.378;-2.914;2022-12-18T12:24:50;23.45;;;12.15;;
74215;SDS011;62577;53.378;-2.914;2022-12-18T12:34:59;31.70;;;14.30;;
74215;SDS011;62577;53.378;-2.914;2022-12-18T12:40:15;34.65;;;15.48;;
74215;SDS011;62577;53.378;-2.914;2022-12-18T12:42:54;30.70;;;13.85;;
74215;SDS011;62577;53.378;-2.914;2022-12-18T12:45:47;27.48;;;13.80;;
74215;SDS011;62577;53.378;-2.914;2022-12-18T12:48:16;29.42;;;15.07;;
74215;SDS011;62577;53.378;-2.914;2022-12-18T12:53:11;27.80;;;13.73;;
74215;SDS011;62577;53.378;-2.914;2022-12-18T12:55:40;30.58;;;16.70;;
74215;SDS011;62577;53.378;-2.914;2022-12-18T13:00:55;30.55;;;14.35;;
74215;SDS011;62577;53.378;-2.914;2022-12-18T13:05:51;47.10;;;19.85;;
74215;SDS011;62577;53.378;-2.914;2022-12-18T13:08:31;44.83;;;19.65;;
74215;SDS011;62577;53.378;-2.914;2022-12-18T13:10:58;62.50;;;22.70;;
74215;SDS011;62577;53.378;-2.914;2022-12-18T13:13:50;47.63;;;21.05;;
74215;SDS011;62577;53.378;-2.914;2022-12-18T13:16:20;46.67;;;22.75;;
74215;SDS011;62577;53.378;-2.914;2022-12-18T13:18:50;54.38;;;26.02;;
74215;SDS011;62577;53.378;-2.914;2022-12-18T13:21:26;49.88;;;17.95;;
74215;SDS011;62577;53.378;-2.914;2022-12-18T13:23:53;54.83;;;20.17;;
74215;SDS011;62577;53.378;-2.914;2022-12-18T13:28:50;54.83;;;22.25;;
74215;SDS011;62577;53.378;-2.914;2022-12-18T13:42:59;52.67;;;24.05;;
74215;SDS011;62577;53.378;-2.914;2022-12-18T13:45:39;48.80;;;23.63;;
74215;SDS011;62577;53.378;-2.914;2022-12-18T13:48:13;49.45;;;29.15;;
74215;SDS011;62577;53.378;-2.914;2022-12-18T13:50:41;44.03;;;20.98;;
74215;SDS011;62577;53.378;-2.914;2022-12-18T13:53:12;46.75;;;27.30;;
74215;SDS011;62577;53.378;-2.914;2022-12-18T13:55:43;46.75;;;22.20;;
74215;SDS011;62577;53.378;-2.914;2022-12-18T13:58:13;40.08;;;21.83;;
74215;SDS011;62577;53.378;-2.914;2022-12-18T14:00:42;49.38;;;22.73;;
74215;SDS011;62577;53.378;-2.914;2022-12-18T14:03:24;56.33;;;25.40;;
74215;SDS011;62577;53.378;-2.914;2022-12-18T14:06:12;46.58;;;22.23;;
74215;SDS011;62577;53.378;-2.914;2022-12-18T14:08:38;54.88;;;29.13;;
74215;SDS011;62577;53.378;-2.914;2022-12-18T14:11:20;43.60;;;20.30;;
74215;SDS011;62577;53.378;-2.914;2022-12-18T14:13:51;51.45;;;21.77;;
74215;SDS011;62577;53.378;-2.914;2022-12-18T14:16:17;54.15;;;23.30;;
74215;SDS011;62577;53.378;-2.914;2022-12-18T14:18:45;61.17;;;27.73;;
74215;SDS011;62577;53.378;-2.914;2022-12-18T14:21:19;60.50;;;28.85;;
74215;SDS011;62577;53.378;-2.914;2022-12-18T14:23:46;47.35;;;23.00;;
74215;SDS011;62577;53.378;-2.914;2022-12-18T14:26:20;53.28;;;23.52;;
74215;SDS011;62577;53.378;-2.914;2022-12-18T14:28:46;51.28;;;25.50;;
74215;SDS011;62577;53.378;-2.914;2022-12-18T14:31:19;54.55;;;24.23;;
74215;SDS011;62577;53.378;-2.914;2022-12-18T14:33:45;56.28;;;24.45;;
74215;SDS011;62577;53.378;-2.914;2022-12-18T14:36:13;46.65;;;22.98;;
74215;SDS011;62577;53.378;-2.914;2022-12-18T14:38:41;55.72;;;23.83;;
74215;SDS011;62577;53.378;-2.914;2022-12-18T14:41:10;60.88;;;26.33;;
74215;SDS011;62577;53.378;-2.914;2022-12-18T14:43:38;60.90;;;25.63;;
74215;SDS011;62577;53.378;-2.914;2022-12-18T14:46:05;67.25;;;24.92;;
74215;SDS011;62577;53.378;-2.914;2022-12-18T14:48:39;61.53;;;27.58;;
74215;SDS011;62577;53.378;-2.914;2022-12-18T14:51:06;60.17;;;41.78;;
74215;SDS011;62577;53.378;-2.914;2022-12-18T14:56:02;56.22;;;30.65;;
